createdAt,value
2018-09-04T00:00:50.422Z,51.76
2018-09-04T00:01:59.592Z,51.66
2018-09-04T00:03:09.284Z,51.95
2018-09-04T00:04:18.988Z,52.05
2018-09-04T00:05:28.183Z,52.05
2018-09-04T00:06:37.357Z,51.95
2018-09-04T00:07:46.542Z,52.05
2018-09-04T00:08:56.213Z,51.76
2018-09-04T00:10:05.886Z,51.95
2018-09-04T00:11:15.066Z,51.76
2018-09-04T00:12:24.996Z,51.86
2018-09-04T00:13:35.003Z,51.95
2018-09-04T00:14:44.700Z,52.14
2018-09-04T00:15:54.404Z,51.86
2018-09-04T00:17:04.099Z,52.05
2018-09-04T00:18:13.270Z,51.76
2018-09-04T00:19:22.163Z,51.95
2018-09-04T00:20:31.088Z,52.05
2018-09-04T00:21:39.990Z,52.05
2018-09-04T00:22:49.413Z,52.14
2018-09-04T00:23:58.845Z,51.95
2018-09-04T00:25:08.002Z,52.05
2018-09-04T00:26:16.946Z,52.05
2018-09-04T00:27:26.416Z,51.93
2018-09-04T00:28:35.836Z,52.05
2018-09-04T00:29:45.327Z,52.14
2018-09-04T00:30:54.770Z,51.95
2018-09-04T00:32:04.458Z,51.86
2018-09-04T00:33:13.878Z,51.93
2018-09-04T00:34:23.506Z,51.86
2018-09-04T00:35:33.942Z,51.76
2018-09-04T00:36:43.358Z,51.76
2018-09-04T00:37:52.567Z,51.76
2018-09-04T00:39:01.996Z,52.14
2018-09-04T00:40:10.906Z,52.05
2018-09-04T00:41:20.062Z,51.86
2018-09-04T00:42:29.491Z,51.83
2018-09-04T00:43:38.379Z,51.86
2018-09-04T00:44:47.554Z,51.76
2018-09-04T00:45:56.736Z,51.86
2018-09-04T00:47:06.665Z,51.93
2018-09-04T00:48:16.602Z,51.73
2018-09-04T00:49:26.030Z,51.76
2018-09-04T00:50:35.953Z,52.14
2018-09-04T00:51:45.110Z,52.05
2018-09-04T00:52:54.277Z,51.95
2018-09-04T00:54:03.686Z,52.24
2018-09-04T00:55:12.607Z,52.14
2018-09-04T00:56:22.289Z,52.24
2018-09-04T00:57:31.718Z,52.05
2018-09-04T00:58:41.589Z,52.24
2018-09-04T00:59:51.081Z,52.14
2018-09-04T01:00:59.990Z,52.12
2018-09-04T01:02:09.933Z,52.14
2018-09-04T01:03:19.358Z,52.22
2018-09-04T01:04:29.282Z,51.95
2018-09-04T01:05:38.975Z,52.14
2018-09-04T01:06:48.449Z,52.05
2018-09-04T01:07:57.602Z,52.14
2018-09-04T01:09:07.021Z,52.34
2018-09-04T01:10:16.438Z,52.31
2018-09-04T01:11:25.598Z,52.12
2018-09-04T01:12:35.032Z,52.24
2018-09-04T01:13:44.454Z,52.73
2018-09-04T01:14:54.113Z,52.89
2018-09-04T01:16:03.553Z,52.82
2018-09-04T01:17:12.971Z,52.92
2018-09-04T01:19:31.026Z,52.7
2018-09-04T01:20:40.954Z,52.51
2018-09-04T01:21:50.367Z,52.82
2018-09-04T01:22:59.616Z,52.82
2018-09-04T01:24:09.297Z,52.7
2018-09-04T01:25:19.003Z,52.63
2018-09-04T01:26:28.176Z,52.44
2018-09-04T01:27:37.368Z,52.44
2018-09-04T01:28:46.785Z,52.53
2018-09-04T01:29:55.717Z,52.73
2018-09-04T01:31:04.640Z,52.73
2018-09-04T01:32:13.813Z,52.53
2018-09-04T01:33:22.998Z,52.53
2018-09-04T01:34:32.414Z,52.61
2018-09-04T01:35:42.093Z,52.63
2018-09-04T01:36:51.782Z,52.22
2018-09-04T01:38:01.207Z,52.61
2018-09-04T01:39:11.385Z,52.63
2018-09-04T01:40:20.542Z,52.61
2018-09-04T01:41:29.441Z,52.61
2018-09-04T01:42:38.591Z,53.02
2018-09-04T01:43:48.567Z,52.8
2018-09-04T01:44:57.467Z,52.61
2018-09-04T01:46:06.874Z,52.99
2018-09-04T01:47:16.554Z,53.21
2018-09-04T01:48:26.028Z,52.82
2018-09-04T01:49:35.969Z,53.02
2018-09-04T01:50:45.384Z,52.99
2018-09-04T01:51:54.795Z,52.8
2018-09-04T01:53:04.246Z,52.89
2018-09-04T01:54:13.919Z,52.8
2018-09-04T01:55:23.384Z,53.02
2018-09-04T01:56:32.552Z,52.89
2018-09-04T01:57:41.998Z,53.02
2018-09-04T01:58:51.723Z,52.63
2018-09-04T02:00:01.173Z,52.63
2018-09-04T02:01:10.585Z,52.61
2018-09-04T02:02:19.749Z,52.8
2018-09-04T02:03:28.655Z,52.92
2018-09-04T02:04:37.564Z,52.8
2018-09-04T02:05:47.027Z,52.7
2018-09-04T02:06:56.198Z,52.7
2018-09-04T02:08:05.350Z,52.73
2018-09-04T02:09:15.028Z,52.89
2018-09-04T02:10:24.728Z,52.7
2018-09-04T02:11:34.533Z,52.99
2018-09-04T02:12:43.958Z,53.02
2018-09-04T02:13:53.384Z,52.7
2018-09-04T02:15:02.557Z,52.73
2018-09-04T02:16:11.730Z,53.09
2018-09-04T02:17:21.160Z,52.44
2018-09-04T02:18:30.338Z,52.53
2018-09-04T02:19:39.510Z,53.11
2018-09-04T02:20:49.181Z,53.59
2018-09-04T02:21:58.359Z,52.53
2018-09-04T02:23:08.055Z,52.7
2018-09-04T02:24:18.052Z,53.59
2018-09-04T02:25:26.697Z,53.19
2018-09-04T02:26:35.861Z,53.41
2018-09-04T02:27:45.081Z,53.28
2018-09-04T02:28:54.494Z,53.28
2018-09-04T02:30:04.443Z,53.28
2018-09-04T02:31:14.405Z,53.28
2018-09-04T02:32:24.345Z,53.41
2018-09-04T02:33:33.272Z,53.28
2018-09-04T02:34:43.287Z,53.5
2018-09-04T02:35:53.224Z,53.31
2018-09-04T02:37:03.173Z,53.28
2018-09-04T02:38:12.859Z,53.38
2018-09-04T02:39:22.548Z,53.09
2018-09-04T02:40:31.964Z,53.31
2018-09-04T02:41:41.648Z,53.21
2018-09-04T02:42:51.326Z,53.11
2018-09-04T02:44:01.169Z,52.99
2018-09-04T02:45:10.852Z,52.99
2018-09-04T02:46:20.537Z,53.19
2018-09-04T02:47:29.980Z,52.99
2018-09-04T02:48:39.154Z,53.09
2018-09-04T02:49:48.312Z,53.28
2018-09-04T02:50:57.731Z,53.31
2018-09-04T02:52:06.643Z,53.09
2018-09-04T02:53:16.061Z,53.28
2018-09-04T02:54:24.998Z,53.57
2018-09-04T02:55:34.155Z,53.28
2018-09-04T02:56:44.090Z,53.38
2018-09-04T02:57:53.516Z,53.28
2018-09-04T02:59:02.657Z,53.28
2018-09-04T03:00:11.833Z,53.69
2018-09-04T03:01:21.785Z,53.28
2018-09-04T03:02:31.495Z,53.57
2018-09-04T03:03:40.696Z,53.57
2018-09-04T03:04:50.418Z,53.28
2018-09-04T03:05:59.838Z,53.38
2018-09-04T03:07:09.066Z,53.47
2018-09-04T03:08:18.471Z,53.47
2018-09-04T03:09:27.901Z,53.57
2018-09-04T03:10:37.597Z,53.57
2018-09-04T03:11:47.534Z,53.47
2018-09-04T03:12:56.956Z,53.57
2018-09-04T03:14:06.369Z,53.28
2018-09-04T03:15:16.093Z,53.47
2018-09-04T03:16:24.994Z,53.28
2018-09-04T03:17:34.216Z,53.28
2018-09-04T03:18:44.150Z,53.38
2018-09-04T03:19:53.923Z,53.38
2018-09-04T03:21:03.865Z,53.28
2018-09-04T03:22:13.287Z,53.31
2018-09-04T03:23:22.959Z,53.19
2018-09-04T03:24:32.107Z,53.19
2018-09-04T03:25:41.560Z,53.09
2018-09-04T03:26:50.458Z,53.19
2018-09-04T03:28:00.184Z,53.19
2018-09-04T03:29:09.936Z,53.31
2018-09-04T03:30:19.362Z,53.67
2018-09-04T03:31:29.332Z,53.67
2018-09-04T03:32:39.017Z,53.38
2018-09-04T03:33:48.467Z,53.38
2018-09-04T03:34:58.418Z,53.19
2018-09-04T03:36:07.833Z,53.19
2018-09-04T03:37:17.238Z,53.38
2018-09-04T03:38:27.234Z,53.77
2018-09-04T03:39:36.658Z,53.77
2018-09-04T03:40:46.608Z,53.77
2018-09-04T03:41:56.577Z,53.28
2018-09-04T03:43:06.002Z,53.28
2018-09-04T03:44:15.723Z,53.57
2018-09-04T03:45:24.927Z,53.57
2018-09-04T03:46:34.112Z,53.67
2018-09-04T03:47:43.535Z,53.38
2018-09-04T03:48:53.494Z,53.38
2018-09-04T03:50:03.174Z,53.47
2018-09-04T03:51:12.841Z,53.47
2018-09-04T03:52:22.419Z,53.47
2018-09-04T03:53:32.536Z,53.47
2018-09-04T03:54:41.942Z,53.47
2018-09-04T03:55:51.184Z,53.47
2018-09-04T03:57:00.356Z,53.67
2018-09-04T03:58:09.791Z,53.67
2018-09-04T03:59:19.225Z,53.38
2018-09-04T04:00:28.703Z,53.96
2018-09-04T04:01:38.123Z,53.67
2018-09-04T04:02:48.053Z,53.47
2018-09-04T04:03:57.734Z,53.47
2018-09-04T04:05:07.144Z,53.86
2018-09-04T04:06:16.590Z,53.86
2018-09-04T04:07:26.006Z,53.57
2018-09-04T04:08:35.692Z,53.86
2018-09-04T04:09:45.122Z,53.86
2018-09-04T04:10:54.792Z,53.86
2018-09-04T04:12:04.736Z,53.57
2018-09-04T04:13:14.304Z,53.57
2018-09-04T04:14:23.982Z,53.86
2018-09-04T04:15:33.217Z,53.86
2018-09-04T04:16:43.161Z,53.57
2018-09-04T04:17:53.105Z,53.57
2018-09-04T04:19:03.065Z,53.57
2018-09-04T04:20:13.004Z,53.86
2018-09-04T04:21:22.432Z,53.57
2018-09-04T04:22:32.363Z,53.47
2018-09-04T04:23:41.819Z,53.47
2018-09-04T04:24:51.638Z,53.86
2018-09-04T04:26:01.558Z,53.57
2018-09-04T04:27:11.515Z,53.47
2018-09-04T04:28:21.436Z,53.57
2018-09-04T04:29:31.405Z,53.47
2018-09-04T04:30:40.832Z,53.47
2018-09-04T04:31:50.248Z,53.67
2018-09-04T04:32:59.809Z,53.57
2018-09-04T04:34:09.511Z,53.47
2018-09-04T04:35:19.241Z,53.67
2018-09-04T04:36:28.680Z,54.05
2018-09-04T04:37:38.141Z,54.15
2018-09-04T04:38:47.581Z,54.25
2018-09-04T04:39:57.291Z,54.25
2018-09-04T04:41:07.257Z,54.15
2018-09-04T04:42:16.946Z,54.35
2018-09-04T04:43:26.142Z,54.25
2018-09-04T04:44:35.841Z,54.05
2018-09-04T04:45:45.283Z,54.05
2018-09-04T04:46:54.754Z,53.96
2018-09-04T04:48:04.878Z,54.05
2018-09-04T04:49:14.328Z,54.25
2018-09-04T04:50:23.757Z,54.15
2018-09-04T04:51:33.447Z,54.15
2018-09-04T04:52:43.112Z,54.44
2018-09-04T04:53:52.809Z,53.96
2018-09-04T04:55:02.760Z,54.05
2018-09-04T04:56:11.923Z,54.15
2018-09-04T04:57:21.360Z,54.15
2018-09-04T04:58:30.877Z,54.15
2018-09-04T04:59:40.284Z,54.15
2018-09-04T05:00:49.469Z,53.96
2018-09-04T05:01:58.372Z,54.05
2018-09-04T05:03:07.536Z,54.15
2018-09-04T05:04:17.476Z,53.96
2018-09-04T05:05:26.906Z,54.05
2018-09-04T05:06:35.822Z,53.96
2018-09-04T05:07:45.514Z,54.53
2018-09-04T05:08:54.953Z,54.15
2018-09-04T05:10:04.380Z,54.25
2018-09-04T05:11:14.766Z,54.25
2018-09-04T05:12:24.907Z,54.25
2018-09-04T05:13:34.363Z,54.05
2018-09-04T05:14:44.120Z,53.96
2018-09-04T05:15:53.548Z,53.96
2018-09-04T05:17:02.463Z,54.05
2018-09-04T05:18:12.142Z,54.15
2018-09-04T05:19:21.990Z,54.05
2018-09-04T05:20:31.410Z,54.05
2018-09-04T05:21:40.821Z,54.05
2018-09-04T05:22:50.136Z,54.44
2018-09-04T05:23:59.662Z,53.96
2018-09-04T05:25:09.117Z,54.15
2018-09-04T05:26:18.806Z,54.15
2018-09-04T05:27:28.475Z,54.05
2018-09-04T05:28:37.435Z,54.05
2018-09-04T05:29:46.335Z,54.35
2018-09-04T05:30:55.269Z,54.35
2018-09-04T05:32:04.439Z,54.35
2018-09-04T05:33:13.914Z,54.35
2018-09-04T05:34:23.597Z,54.25
2018-09-04T05:35:32.780Z,54.25
2018-09-04T05:36:42.542Z,54.25
2018-09-04T05:37:52.309Z,54.35
2018-09-04T05:39:02.297Z,54.25
2018-09-04T05:40:12.504Z,54.25
2018-09-04T05:41:21.723Z,54.35
2018-09-04T05:42:31.589Z,54.25
2018-09-04T05:43:41.586Z,54.25
2018-09-04T05:44:51.007Z,54.35
2018-09-04T05:46:00.694Z,54.25
2018-09-04T05:47:10.142Z,54.44
2018-09-04T05:48:19.141Z,54.35
2018-09-04T05:49:28.857Z,54.35
2018-09-04T05:50:38.280Z,54.44
2018-09-04T05:51:47.965Z,54.44
2018-09-04T05:52:57.406Z,54.44
2018-09-04T05:54:06.632Z,54.44
2018-09-04T05:55:16.537Z,54.35
2018-09-04T05:56:27.007Z,54.35
2018-09-04T05:57:36.434Z,54.05
2018-09-04T05:58:45.660Z,54.35
2018-09-04T05:59:54.459Z,54.35
2018-09-04T06:01:03.871Z,54.25
2018-09-04T06:02:13.295Z,54.15
2018-09-04T06:03:22.476Z,53.96
2018-09-04T06:04:32.073Z,54.05
2018-09-04T06:05:41.752Z,54.53
2018-09-04T06:06:50.989Z,54.53
2018-09-04T06:08:00.465Z,54.63
2018-09-04T06:09:10.172Z,54.53
2018-09-04T06:10:19.923Z,54.05
2018-09-04T06:11:29.364Z,54.53
2018-09-04T06:12:38.825Z,54.05
2018-09-04T06:13:48.332Z,54.35
2018-09-04T06:14:57.752Z,54.53
2018-09-04T06:16:07.689Z,54.44
2018-09-04T06:17:17.221Z,54.15
2018-09-04T06:18:26.639Z,54.44
2018-09-04T06:19:36.613Z,54.53
2018-09-04T06:20:46.344Z,54.15
2018-09-04T06:21:55.542Z,54.44
2018-09-04T06:23:06.113Z,54.63
2018-09-04T06:24:15.031Z,54.63
2018-09-04T06:25:25.201Z,54.15
2018-09-04T06:26:35.526Z,55.02
2018-09-04T06:27:45.395Z,54.05
2018-09-04T06:28:55.098Z,54.53
2018-09-04T06:30:03.993Z,53.96
2018-09-04T06:31:13.697Z,54.35
2018-09-04T06:32:23.354Z,54.15
2018-09-04T06:33:33.029Z,54.73
2018-09-04T06:34:42.998Z,54.63
2018-09-04T06:35:52.511Z,54.63
2018-09-04T06:37:01.703Z,54.83
2018-09-04T06:38:11.417Z,54.73
2018-09-04T06:39:20.602Z,54.53
2018-09-04T06:40:30.378Z,54.53
2018-09-04T06:41:39.607Z,54.53
2018-09-04T06:42:49.288Z,54.63
2018-09-04T06:43:58.198Z,54.63
2018-09-04T06:45:07.371Z,54.44
2018-09-04T06:46:17.048Z,54.53
2018-09-04T06:47:26.807Z,54.53
2018-09-04T06:48:35.992Z,54.63
2018-09-04T06:49:45.156Z,54.53
2018-09-04T06:50:54.842Z,54.73
2018-09-04T06:52:03.757Z,54.73
2018-09-04T06:53:13.180Z,54.53
2018-09-04T06:54:22.859Z,54.53
2018-09-04T06:55:33.009Z,54.53
2018-09-04T06:56:42.695Z,54.35
2018-09-04T06:57:52.150Z,54.44
2018-09-04T06:59:02.298Z,54.53
2018-09-04T07:00:11.464Z,54.63
2018-09-04T07:01:20.898Z,54.73
2018-09-04T07:02:30.638Z,54.63
2018-09-04T07:03:39.545Z,54.44
2018-09-04T07:04:48.980Z,54.44
2018-09-04T07:05:58.453Z,54.63
2018-09-04T07:07:07.724Z,54.73
2018-09-04T07:08:17.130Z,54.53
2018-09-04T07:09:26.027Z,54.53
2018-09-04T07:10:35.450Z,54.53
2018-09-04T07:11:44.878Z,54.53
2018-09-04T07:12:54.066Z,54.44
2018-09-04T07:14:03.562Z,54.44
2018-09-04T07:15:12.975Z,54.53
2018-09-04T07:16:22.398Z,54.53
2018-09-04T07:17:32.139Z,54.53
2018-09-04T07:18:41.833Z,54.53
2018-09-04T07:19:51.296Z,54.53
2018-09-04T07:21:00.477Z,54.63
2018-09-04T07:22:10.178Z,54.73
2018-09-04T07:23:19.332Z,54.83
2018-09-04T07:24:29.283Z,54.73
2018-09-04T07:25:38.743Z,54.83
2018-09-04T07:26:47.654Z,54.73
2018-09-04T07:27:56.552Z,54.73
2018-09-04T07:29:05.992Z,54.53
2018-09-04T07:30:15.674Z,54.63
2018-09-04T07:31:25.607Z,54.83
2018-09-04T07:32:35.060Z,54.73
2018-09-04T07:33:44.748Z,54.63
2018-09-04T07:34:54.434Z,54.53
2018-09-04T07:36:03.852Z,54.53
2018-09-04T07:37:13.020Z,54.44
2018-09-04T07:38:22.729Z,54.53
2018-09-04T07:39:31.939Z,54.73
2018-09-04T07:40:41.110Z,54.57
2018-09-04T07:41:50.886Z,54.75
2018-09-04T07:42:59.792Z,54.53
2018-09-04T07:44:08.701Z,54.53
2018-09-04T07:45:18.135Z,54.35
2018-09-04T07:46:27.813Z,54.73
2018-09-04T07:47:37.504Z,54.75
2018-09-04T07:48:46.686Z,54.75
2018-09-04T07:49:55.628Z,54.53
2018-09-04T07:51:05.323Z,54.47
2018-09-04T07:52:15.018Z,54.53
2018-09-04T07:53:24.461Z,54.75
2018-09-04T07:54:34.147Z,54.75
2018-09-04T07:55:43.595Z,54.75
2018-09-04T07:56:52.516Z,54.57
2018-09-04T07:58:02.297Z,54.44
2018-09-04T07:59:11.983Z,54.73
2018-09-04T08:00:21.150Z,54.47
2018-09-04T08:01:30.580Z,54.44
2018-09-04T08:02:40.259Z,54.44
2018-09-04T08:03:49.684Z,54.63
2018-09-04T08:04:58.918Z,54.47
2018-09-04T08:06:08.357Z,54.73
2018-09-04T08:07:17.775Z,54.47
2018-09-04T08:08:26.934Z,54.63
2018-09-04T08:09:36.609Z,54.66
2018-09-04T08:10:46.043Z,54.83
2018-09-04T08:11:55.209Z,54.83
2018-09-04T08:13:04.663Z,54.53
2018-09-04T08:14:14.408Z,54.83
2018-09-04T08:15:24.132Z,54.63
2018-09-04T08:16:33.819Z,54.57
2018-09-04T08:17:43.010Z,54.53
2018-09-04T08:18:53.109Z,54.73
2018-09-04T08:20:02.525Z,54.75
2018-09-04T08:21:12.078Z,54.63
2018-09-04T08:22:21.524Z,54.57
2018-09-04T08:23:30.703Z,54.66
2018-09-04T08:24:40.136Z,54.85
2018-09-04T08:25:50.200Z,54.44
2018-09-04T08:26:59.653Z,54.63
2018-09-04T08:28:08.831Z,54.66
2018-09-04T08:29:18.307Z,54.73
2018-09-04T08:30:27.739Z,54.66
2018-09-04T08:31:37.417Z,54.85
2018-09-04T08:32:46.608Z,54.85
2018-09-04T08:33:56.242Z,54.75
2018-09-04T08:35:06.191Z,54.53
2018-09-04T08:36:16.138Z,54.53
2018-09-04T08:37:25.558Z,54.73
2018-09-04T08:38:34.967Z,54.75
2018-09-04T08:39:44.908Z,54.85
2018-09-04T08:40:54.353Z,54.57
2018-09-04T08:42:03.511Z,54.44
2018-09-04T08:43:12.707Z,54.73
2018-09-04T08:44:22.404Z,54.85
2018-09-04T08:45:31.564Z,54.57
2018-09-04T08:46:40.571Z,54.47
2018-09-04T08:47:49.498Z,54.73
2018-09-04T08:48:59.033Z,54.57
2018-09-04T08:50:08.463Z,54.57
2018-09-04T08:51:18.139Z,54.57
2018-09-04T08:52:28.096Z,54.47
2018-09-04T08:53:37.822Z,54.85
2018-09-04T08:54:47.272Z,54.75
2018-09-04T08:55:56.710Z,54.53
2018-09-04T08:57:06.396Z,54.85
2018-09-04T08:58:16.379Z,54.66
2018-09-04T08:59:26.582Z,54.73
2018-09-04T09:00:36.916Z,54.66
2018-09-04T09:01:46.091Z,54.47
2018-09-04T09:02:56.860Z,54.85
2018-09-04T09:04:06.853Z,54.75
2018-09-04T09:05:15.824Z,54.57
2018-09-04T09:06:26.378Z,54.83
2018-09-04T09:07:36.485Z,54.75
2018-09-04T09:08:46.463Z,54.57
2018-09-04T09:09:56.934Z,54.53
2018-09-04T09:11:07.057Z,54.57
2018-09-04T09:12:16.654Z,54.57
2018-09-04T09:13:25.825Z,54.75
2018-09-04T09:14:35.495Z,54.57
2018-09-04T09:15:45.208Z,54.66
2018-09-04T09:16:54.865Z,54.75
2018-09-04T09:18:03.767Z,54.85
2018-09-04T09:19:13.564Z,54.57
2018-09-04T09:20:23.034Z,54.85
2018-09-04T09:21:32.460Z,54.57
2018-09-04T09:22:42.289Z,54.57
2018-09-04T09:23:51.269Z,54.57
2018-09-04T09:25:00.744Z,54.57
2018-09-04T09:26:09.920Z,54.66
2018-09-04T09:27:19.066Z,54.66
2018-09-04T09:28:28.727Z,54.57
2018-09-04T09:29:37.873Z,54.47
2018-09-04T09:30:47.126Z,54.57
2018-09-04T09:31:56.550Z,54.47
2018-09-04T09:33:06.300Z,54.57
2018-09-04T09:34:15.732Z,54.47
2018-09-04T09:35:25.676Z,54.53
2018-09-04T09:36:35.614Z,54.47
2018-09-04T09:37:45.481Z,54.66
2018-09-04T09:38:54.670Z,54.47
2018-09-04T09:40:04.353Z,54.73
2018-09-04T09:41:14.058Z,54.66
2018-09-04T09:42:23.740Z,54.44
2018-09-04T09:43:33.224Z,54.53
2018-09-04T09:44:42.910Z,54.47
2018-09-04T09:45:52.336Z,54.66
2018-09-04T09:47:01.832Z,54.57
2018-09-04T09:48:11.062Z,54.66
2018-09-04T09:49:20.246Z,54.75
2018-09-04T09:50:29.696Z,54.66
2018-09-04T09:51:39.119Z,54.47
2018-09-04T09:52:49.056Z,54.66
2018-09-04T09:53:58.815Z,54.47
2018-09-04T09:55:08.399Z,54.57
2018-09-04T09:56:18.234Z,54.57
2018-09-04T09:57:28.275Z,54.66
2018-09-04T09:58:37.526Z,54.66
2018-09-04T09:59:47.095Z,54.66
2018-09-04T10:00:56.713Z,54.47
2018-09-04T10:02:07.027Z,54.57
2018-09-04T10:03:16.187Z,54.47
2018-09-04T10:04:25.602Z,54.66
2018-09-04T10:05:35.049Z,54.47
2018-09-04T10:06:44.789Z,54.57
2018-09-04T10:07:54.953Z,54.47
2018-09-04T10:09:04.068Z,54.66
2018-09-04T10:10:13.928Z,54.75
2018-09-04T10:11:23.691Z,54.85
2018-09-04T10:12:33.390Z,55.05
2018-09-04T10:13:42.544Z,54.75
2018-09-04T10:14:51.965Z,54.95
2018-09-04T10:16:01.149Z,55.15
2018-09-04T10:17:10.315Z,55.24
2018-09-04T10:18:19.998Z,54.95
2018-09-04T10:19:29.711Z,54.95
2018-09-04T10:20:39.387Z,55.24
2018-09-04T10:21:48.820Z,54.85
2018-09-04T10:22:58.240Z,55.24
2018-09-04T10:24:08.000Z,55.05
2018-09-04T10:25:17.684Z,55.24
2018-09-04T10:26:27.454Z,55.24
2018-09-04T10:27:37.545Z,55.05
2018-09-04T10:28:47.029Z,55.05
2018-09-04T10:29:56.695Z,55.05
2018-09-04T10:31:06.378Z,54.85
2018-09-04T10:32:15.541Z,54.85
2018-09-04T10:33:24.969Z,54.95
2018-09-04T10:34:34.124Z,54.85
2018-09-04T10:35:43.960Z,54.85
2018-09-04T10:36:53.669Z,54.85
2018-09-04T10:38:03.372Z,54.95
2018-09-04T10:39:12.540Z,55.05
2018-09-04T10:40:22.233Z,54.85
2018-09-04T10:41:32.478Z,55.05
2018-09-04T10:42:41.664Z,54.95
2018-09-04T10:43:50.835Z,54.95
2018-09-04T10:45:00.246Z,55.05
2018-09-04T10:46:09.402Z,54.85
2018-09-04T10:47:19.072Z,54.85
2018-09-04T10:48:28.748Z,55.05
2018-09-04T10:49:38.191Z,54.95
2018-09-04T10:50:47.366Z,54.85
2018-09-04T10:51:57.052Z,54.95
2018-09-04T10:53:06.527Z,54.95
2018-09-04T10:54:15.938Z,54.85
2018-09-04T10:55:24.861Z,54.85
2018-09-04T10:56:34.550Z,54.85
2018-09-04T10:57:43.828Z,55.05
2018-09-04T10:58:53.786Z,54.95
2018-09-04T11:00:03.725Z,55.05
2018-09-04T11:01:13.165Z,55.34
2018-09-04T11:02:23.283Z,55.24
2018-09-04T11:03:33.223Z,55.15
2018-09-04T11:04:42.905Z,55.05
2018-09-04T11:05:52.842Z,54.95
2018-09-04T11:07:02.942Z,54.95
2018-09-04T11:08:12.114Z,54.85
2018-09-04T11:09:21.044Z,54.85
2018-09-04T11:10:31.347Z,55.05
2018-09-04T11:11:41.034Z,54.85
2018-09-04T11:12:50.877Z,55.15
2018-09-04T11:14:00.563Z,54.85
2018-09-04T11:15:10.229Z,54.85
2018-09-04T11:16:19.393Z,54.85
2018-09-04T11:17:28.811Z,54.95
2018-09-04T11:18:38.025Z,54.85
2018-09-04T11:19:46.935Z,55.24
2018-09-04T11:20:56.378Z,54.85
2018-09-04T11:22:05.980Z,55.15
2018-09-04T11:23:15.675Z,55.05
2018-09-04T11:24:24.645Z,55.15
2018-09-04T11:25:34.072Z,54.75
2018-09-04T11:26:43.501Z,55.05
2018-09-04T11:27:53.445Z,55.15
2018-09-04T11:29:03.162Z,55.05
2018-09-04T11:30:13.094Z,55.05
2018-09-04T11:31:23.058Z,55.15
2018-09-04T11:32:32.733Z,54.85
2018-09-04T11:33:42.164Z,54.85
2018-09-04T11:34:51.339Z,54.85
2018-09-04T11:36:00.563Z,54.85
2018-09-04T11:37:10.424Z,55.24
2018-09-04T11:38:20.386Z,55.34
2018-09-04T11:39:29.547Z,55.24
2018-09-04T11:40:39.610Z,55.15
2018-09-04T11:41:50.158Z,54.95
2018-09-04T11:42:59.448Z,55.15
2018-09-04T11:44:09.986Z,54.75
2018-09-04T11:45:19.839Z,54.85
2018-09-04T11:46:29.373Z,55.05
2018-09-04T11:47:38.559Z,54.85
2018-09-04T11:48:48.854Z,54.95
2018-09-04T11:49:59.343Z,54.85
2018-09-04T11:51:09.036Z,54.47
2018-09-04T11:52:18.800Z,54.66
2018-09-04T11:53:28.578Z,54.66
2018-09-04T11:54:38.329Z,54.66
2018-09-04T11:55:47.831Z,54.47
2018-09-04T11:56:57.252Z,54.66
2018-09-04T11:58:06.416Z,54.75
2018-09-04T11:59:16.111Z,54.75
2018-09-04T12:00:26.041Z,54.47
2018-09-04T12:01:35.726Z,54.47
2018-09-04T12:02:45.154Z,54.75
2018-09-04T12:03:54.344Z,54.66
2018-09-04T12:05:04.034Z,54.66
2018-09-04T12:06:13.458Z,54.75
2018-09-04T12:07:22.633Z,54.75
2018-09-04T12:08:32.315Z,54.85
2018-09-04T12:09:42.263Z,54.85
2018-09-04T12:10:51.685Z,54.75
2018-09-04T12:12:00.924Z,54.88
2018-09-04T12:13:10.484Z,54.85
2018-09-04T12:14:20.577Z,54.75
2018-09-04T12:15:29.240Z,55.15
2018-09-04T12:16:38.748Z,55.15
2018-09-04T12:17:48.423Z,55.05
2018-09-04T12:18:57.894Z,54.95
2018-09-04T12:20:07.806Z,55.24
2018-09-04T12:21:17.576Z,54.95
2018-09-04T12:22:27.546Z,55.05
2018-09-04T12:23:37.002Z,55.15
2018-09-04T12:24:46.329Z,55.15
2018-09-04T12:25:56.109Z,55.24
2018-09-04T12:27:05.642Z,55.15
2018-09-04T12:28:15.596Z,55.24
2018-09-04T12:29:25.038Z,55.15
2018-09-04T12:30:34.463Z,55.24
2018-09-04T12:31:44.147Z,54.75
2018-09-04T12:32:53.573Z,54.85
2018-09-04T12:34:03.488Z,55.24
2018-09-04T12:35:13.328Z,55.15
2018-09-04T12:36:22.886Z,54.75
2018-09-04T12:37:31.769Z,54.95
2018-09-04T12:38:41.187Z,54.75
2018-09-04T12:39:50.883Z,54.75
2018-09-04T12:41:00.560Z,54.95
2018-09-04T12:42:09.793Z,54.85
2018-09-04T12:43:18.697Z,54.85
2018-09-04T12:44:28.384Z,54.57
2018-09-04T12:45:38.335Z,54.57
2018-09-04T12:46:48.056Z,54.66
2018-09-04T12:47:57.785Z,54.66
2018-09-04T12:49:07.323Z,54.85
2018-09-04T12:50:16.757Z,54.66
2018-09-04T12:51:26.694Z,54.47
2018-09-04T12:52:35.870Z,54.47
2018-09-04T12:53:45.604Z,54.57
2018-09-04T12:54:55.309Z,54.66
2018-09-04T12:56:05.177Z,54.57
2018-09-04T12:57:14.604Z,54.57
2018-09-04T12:58:24.040Z,54.57
2018-09-04T12:59:33.488Z,54.47
2018-09-04T13:00:42.656Z,54.47
2018-09-04T13:01:52.068Z,54.47
2018-09-04T13:03:01.245Z,54.57
2018-09-04T13:04:10.663Z,54.59
2018-09-04T13:05:20.088Z,54.57
2018-09-04T13:06:29.503Z,54.47
2018-09-04T13:07:38.926Z,54.66
2018-09-04T13:08:48.853Z,54.47
2018-09-04T13:09:58.691Z,54.59
2018-09-04T13:11:07.870Z,54.66
2018-09-04T13:12:17.039Z,54.59
2018-09-04T13:13:26.968Z,54.57
2018-09-04T13:14:37.066Z,54.69
2018-09-04T13:15:47.060Z,54.57
2018-09-04T13:16:56.258Z,54.59
2018-09-04T13:18:05.679Z,54.49
2018-09-04T13:19:14.912Z,54.57
2018-09-04T13:20:24.750Z,54.59
2018-09-04T13:21:33.967Z,54.49
2018-09-04T13:22:43.395Z,54.57
2018-09-04T13:23:52.296Z,54.69
2018-09-04T13:25:01.728Z,54.59
2018-09-04T13:26:11.144Z,54.69
2018-09-04T13:27:20.574Z,54.57
2018-09-04T13:28:29.755Z,54.47
2018-09-04T13:29:39.169Z,54.59
2018-09-04T13:30:48.595Z,54.69
2018-09-04T13:31:58.275Z,54.49
2018-09-04T13:33:07.704Z,54.69
2018-09-04T13:34:16.956Z,54.39
2018-09-04T13:35:26.922Z,54.79
2018-09-04T13:36:36.424Z,54.79
2018-09-04T13:37:46.351Z,54.21
2018-09-04T13:38:56.286Z,54.59
2018-09-04T13:40:05.975Z,54.59
2018-09-04T13:41:14.901Z,54.69
2018-09-04T13:42:24.590Z,54.88
2018-09-04T13:43:34.346Z,54.59
2018-09-04T13:44:43.272Z,54.69
2018-09-04T13:45:52.430Z,54.49
2018-09-04T13:47:01.343Z,54.79
2018-09-04T13:48:11.027Z,54.59
2018-09-04T13:49:20.836Z,54.59
2018-09-04T13:50:31.437Z,54.49
2018-09-04T13:51:40.604Z,54.49
2018-09-04T13:52:49.767Z,54.59
2018-09-04T13:53:59.197Z,54.39
2018-09-04T13:55:08.628Z,54.49
2018-09-04T13:56:17.803Z,54.11
2018-09-04T13:57:27.280Z,54.59
2018-09-04T13:58:36.708Z,54.59
2018-09-04T13:59:46.642Z,54.3
2018-09-04T14:00:56.077Z,54.59
2018-09-04T14:02:05.795Z,54.59
2018-09-04T14:03:15.195Z,54.21
2018-09-04T14:04:24.704Z,54.59
2018-09-04T14:05:33.888Z,54.01
2018-09-04T14:06:43.312Z,54.01
2018-09-04T14:07:52.977Z,54.01
2018-09-04T14:09:02.651Z,53.89
2018-09-04T14:10:12.076Z,54.39
2018-09-04T14:11:21.939Z,54.3
2018-09-04T14:12:31.508Z,54.39
2018-09-04T14:13:41.186Z,54.39
2018-09-04T14:14:50.949Z,54.21
2018-09-04T14:16:00.361Z,54.39
2018-09-04T14:17:09.778Z,54.3
2018-09-04T14:18:18.940Z,54.39
2018-09-04T14:19:28.090Z,54.39
2018-09-04T14:20:38.011Z,54.39
2018-09-04T14:21:47.448Z,54.39
2018-09-04T14:22:56.616Z,54.3
2018-09-04T14:24:05.770Z,54.21
2018-09-04T14:25:14.673Z,54.21
2018-09-04T14:26:24.542Z,54.39
2018-09-04T14:27:33.965Z,54.39
2018-09-04T14:28:44.086Z,54.39
2018-09-04T14:30:21.036Z,54.39
2018-09-04T14:31:31.321Z,54.3
2018-09-04T14:32:40.499Z,54.39
2018-09-04T14:33:50.178Z,54.39
2018-09-04T14:34:59.663Z,54.39
2018-09-04T14:36:09.488Z,54.39
2018-09-04T14:37:19.863Z,54.39
2018-09-04T14:38:29.522Z,54.3
2018-09-04T14:39:39.258Z,54.39
2018-09-04T14:40:58.549Z,54.3
2018-09-04T14:42:07.243Z,54.3
2018-09-04T14:43:17.554Z,54.21
2018-09-04T14:44:27.247Z,54.3
2018-09-04T14:45:36.664Z,54.11
2018-09-04T14:46:46.344Z,54.3
2018-09-04T14:47:56.040Z,54.11
2018-09-04T14:49:05.992Z,54.21
2018-09-04T14:50:16.167Z,54.11
2018-09-04T14:51:26.100Z,54.39
2018-09-04T14:52:35.778Z,54.21
2018-09-04T14:53:45.712Z,54.39
2018-09-04T14:54:55.128Z,54.3
2018-09-04T14:56:04.542Z,54.3
2018-09-04T14:57:13.954Z,54.11
2018-09-04T14:58:23.113Z,54.3